Time;durP1;ratioP1;P1;durP2;ratioP2;P2;SDS_P1;SDS_P2;PMS_P1;PMS_P2;Temp;Humidity;BMP_temperature;BMP_pressure;BME280_temperature;BME280_humidity;BME280_pressure;Samples;Min_cycle;Max_cycle;Signal;HPM_P1;HPM_P2
2023/09/16 00:01:12;;;;;;;13.80;8.60;;;14.60;99.90;;;;;;5073601;28;20511;-73
2023/09/16 00:03:38;;;;;;;11.47;8.87;;;14.60;99.90;;;;;;5074494;28;20089;-73
2023/09/16 00:06:04;;;;;;;11.37;8.47;;;14.60;99.90;;;;;;5074639;28;20382;-73
2023/09/16 00:08:33;;;;;;;11.27;8.30;;;14.60;99.90;;;;;;5074577;28;20063;-74
2023/09/16 00:11:00;;;;;;;12.67;8.30;;;14.60;99.90;;;;;;5074773;28;20048;-74
2023/09/16 00:13:27;;;;;;;10.33;8.57;;;14.50;99.90;;;;;;5074530;28;20393;-73
2023/09/16 00:15:52;;;;;;;9.57;7.93;;;14.50;99.90;;;;;;5074569;28;20040;-73
2023/09/16 00:18:19;;;;;;;10.50;8.10;;;14.50;99.90;;;;;;5074405;28;20511;-73
2023/09/16 00:20:48;;;;;;;10.70;7.50;;;14.50;99.90;;;;;;5074039;28;20393;-73
2023/09/16 00:23:15;;;;;;;10.73;8.40;;;14.50;99.90;;;;;;5074276;28;20131;-74
2023/09/16 00:25:40;;;;;;;10.50;8.17;;;14.50;99.90;;;;;;5073998;28;20045;-73
2023/09/16 00:28:06;;;;;;;12.53;8.67;;;14.50;99.90;;;;;;5074166;28;20291;-73
2023/09/16 00:30:33;;;;;;;10.93;8.60;;;14.50;99.90;;;;;;5072674;28;20424;-74
2023/09/16 00:32:58;;;;;;;11.13;9.00;;;14.50;99.90;;;;;;5074086;28;20133;-73
2023/09/16 00:35:24;;;;;;;12.33;9.63;;;14.50;99.90;;;;;;5073767;28;20049;-73
2023/09/16 00:37:50;;;;;;;11.37;8.77;;;14.40;99.90;;;;;;5072517;28;20127;-74
2023/09/16 00:40:16;;;;;;;13.70;8.23;;;14.40;99.90;;;;;;5073598;28;20055;-73
2023/09/16 00:42:42;;;;;;;10.77;9.17;;;14.30;99.90;;;;;;5055658;28;20131;-74
2023/09/16 00:45:10;;;;;;;14.63;8.80;;;14.30;99.90;;;;;;5072601;28;20552;-73
2023/09/16 00:47:42;;;;;;;12.40;9.83;;;14.30;99.90;;;;;;5072118;28;20063;-74
2023/09/16 00:50:10;;;;;;;10.37;9.20;;;14.20;99.90;;;;;;5073794;28;20275;-73
2023/09/16 00:52:43;;;;;;;11.97;9.27;;;14.20;99.90;;;;;;5073328;28;20302;-74
2023/09/16 00:55:09;;;;;;;13.57;9.10;;;14.20;99.90;;;;;;5073788;28;20834;-73
2023/09/16 00:57:39;;;;;;;11.17;9.47;;;14.20;99.90;;;;;;5072264;28;20373;-74
2023/09/16 01:00:07;;;;;;;12.10;9.77;;;14.10;99.90;;;;;;5073542;28;20127;-73
2023/09/16 01:02:37;;;;;;;10.73;8.73;;;14.20;99.90;;;;;;5072082;28;20307;-76
2023/09/16 01:05:08;;;;;;;13.37;10.23;;;14.10;99.90;;;;;;5073828;28;20080;-73
2023/09/16 01:07:34;;;;;;;12.10;9.43;;;14.10;99.90;;;;;;5073421;28;20746;-76
2023/09/16 01:10:00;;;;;;;13.17;10.10;;;14.10;99.90;;;;;;5073539;28;20067;-73
2023/09/16 01:12:26;;;;;;;11.97;9.37;;;14.00;99.90;;;;;;5072388;28;20766;-73
2023/09/16 01:14:51;;;;;;;12.03;10.47;;;14.10;99.90;;;;;;5072917;28;20049;-73
2023/09/16 01:17:43;;;;;;;12.67;9.87;;;14.10;99.90;;;;;;5072025;28;20055;-73
2023/09/16 01:20:15;;;;;;;12.57;10.10;;;14.10;99.90;;;;;;5067155;28;20052;-73
2023/09/16 01:22:45;;;;;;;12.63;9.30;;;14.00;99.90;;;;;;5071549;28;20048;-73
2023/09/16 01:25:14;;;;;;;11.93;10.03;;;14.00;99.90;;;;;;5072240;28;20774;-73
2023/09/16 01:27:41;;;;;;;13.50;10.67;;;14.00;99.90;;;;;;5072965;28;20279;-74
2023/09/16 01:30:08;;;;;;;11.47;9.93;;;14.00;99.90;;;;;;5073037;28;20719;-73
2023/09/16 01:32:45;;;;;;;12.07;9.67;;;14.00;99.90;;;;;;5071848;28;20282;-73
2023/09/16 01:35:14;;;;;;;12.17;9.77;;;13.90;99.90;;;;;;5072073;28;20055;-73
2023/09/16 01:37:43;;;;;;;12.83;10.30;;;13.90;99.90;;;;;;5072802;28;20040;-73
2023/09/16 01:40:11;;;;;;;12.37;10.30;;;13.90;99.90;;;;;;5071990;28;20297;-73
2023/09/16 01:42:38;;;;;;;12.57;10.47;;;13.90;99.90;;;;;;5071398;28;20048;-73
2023/09/16 01:45:05;;;;;;;13.23;10.20;;;13.90;99.90;;;;;;5072936;28;20842;-73
2023/09/16 01:47:31;;;;;;;12.83;10.43;;;13.80;99.90;;;;;;5072670;28;20282;-73
2023/09/16 01:49:56;;;;;;;15.50;10.90;;;13.80;99.90;;;;;;5071433;28;20408;-73
2023/09/16 01:52:22;;;;;;;16.23;11.73;;;13.80;99.90;;;;;;5072821;28;20453;-72
2023/09/16 01:54:48;;;;;;;12.50;11.17;;;13.80;99.90;;;;;;5072513;28;20051;-73
2023/09/16 01:57:14;;;;;;;12.30;10.97;;;13.80;99.90;;;;;;5072822;28;20048;-73
2023/09/16 01:59:39;;;;;;;14.57;11.50;;;13.80;99.90;;;;;;5072778;28;20151;-73
2023/09/16 02:02:05;;;;;;;13.63;10.77;;;13.80;99.90;;;;;;5072584;28;20040;-73
2023/09/16 02:04:31;;;;;;;12.97;10.87;;;13.80;99.90;;;;;;5072147;28;20477;-73
2023/09/16 02:06:57;;;;;;;13.13;11.10;;;13.80;99.90;;;;;;5071371;28;20133;-73
2023/09/16 02:09:22;;;;;;;13.03;11.60;;;13.80;99.90;;;;;;5072712;28;20048;-73
2023/09/16 02:11:48;;;;;;;15.10;12.30;;;13.70;99.90;;;;;;5071356;28;20441;-73
2023/09/16 02:14:18;;;;;;;14.40;11.40;;;13.70;99.90;;;;;;5072571;28;20048;-73
2023/09/16 02:16:45;;;;;;;14.13;12.10;;;13.70;99.90;;;;;;5072388;28;20044;-74
2023/09/16 02:19:11;;;;;;;12.73;11.33;;;13.70;99.90;;;;;;5071583;28;20362;-73
2023/09/16 02:21:37;;;;;;;14.03;12.43;;;13.70;99.90;;;;;;5072471;28;20298;-73
2023/09/16 02:24:03;;;;;;;12.77;11.17;;;13.70;99.90;;;;;;5054579;28;20293;-73
2023/09/16 02:26:29;;;;;;;12.27;10.97;;;13.70;99.90;;;;;;5072498;28;20049;-73
2023/09/16 02:28:55;;;;;;;12.83;11.03;;;13.70;99.90;;;;;;5054650;28;20298;-73
2023/09/16 02:31:22;;;;;;;13.80;11.73;;;13.70;99.90;;;;;;5072735;28;20040;-73
2023/09/16 02:33:47;;;;;;;13.57;12.17;;;13.70;99.90;;;;;;5072221;28;20052;-73
2023/09/16 02:36:13;;;;;;;14.67;11.83;;;13.60;99.90;;;;;;5072657;28;20282;-73
2023/09/16 02:38:38;;;;;;;12.70;10.80;;;13.70;99.90;;;;;;5072384;28;20124;-73
2023/09/16 02:41:04;;;;;;;15.30;11.80;;;13.60;99.90;;;;;;5072040;28;20044;-73
2023/09/16 02:43:30;;;;;;;12.33;10.67;;;13.60;99.90;;;;;;5071408;28;20045;-73
2023/09/16 02:45:56;;;;;;;13.33;11.53;;;13.60;99.90;;;;;;5072077;28;20052;-73
2023/09/16 02:48:23;;;;;;;16.67;11.87;;;13.60;99.90;;;;;;5070963;28;20052;-73
2023/09/16 02:50:49;;;;;;;14.30;11.10;;;13.50;99.90;;;;;;5072019;28;20279;-74
2023/09/16 02:53:16;;;;;;;13.20;11.30;;;13.50;99.90;;;;;;5071148;28;20287;-73
2023/09/16 02:55:42;;;;;;;13.80;11.40;;;13.50;99.90;;;;;;5072214;28;20757;-73
2023/09/16 02:58:07;;;;;;;13.23;11.70;;;13.50;99.90;;;;;;5071926;28;20294;-73
2023/09/16 03:00:33;;;;;;;13.63;11.93;;;13.50;99.90;;;;;;5054256;28;20045;-73
2023/09/16 03:02:59;;;;;;;14.60;12.53;;;13.50;99.90;;;;;;5071824;28;20044;-74
2023/09/16 03:05:25;;;;;;;15.63;12.50;;;13.40;99.90;;;;;;5072140;28;20145;-74
2023/09/16 03:07:51;;;;;;;15.90;11.53;;;13.40;99.90;;;;;;5071848;28;20052;-74
2023/09/16 03:10:17;;;;;;;14.33;12.20;;;13.40;99.90;;;;;;5070875;28;20110;-73
2023/09/16 03:12:43;;;;;;;13.80;12.40;;;13.40;99.90;;;;;;5071117;28;20290;-73
2023/09/16 03:15:11;;;;;;;14.07;11.70;;;13.40;99.90;;;;;;5054063;28;20653;-74
2023/09/16 03:17:36;;;;;;;13.87;12.43;;;13.40;99.90;;;;;;5073505;28;20055;-73
2023/09/16 03:20:02;;;;;;;12.47;11.17;;;13.40;99.90;;;;;;5075306;28;20283;-74
2023/09/16 03:22:28;;;;;;;14.07;12.57;;;13.40;99.90;;;;;;5091203;28;20037;-73
2023/09/16 03:24:54;;;;;;;13.33;11.87;;;13.30;99.90;;;;;;5074035;28;20128;-74
2023/09/16 03:27:20;;;;;;;14.17;11.53;;;13.30;99.90;;;;;;5074263;28;20109;-73
2023/09/16 03:29:45;;;;;;;13.30;11.90;;;13.30;99.90;;;;;;5075370;28;20048;-74
2023/09/16 03:32:11;;;;;;;14.57;12.43;;;13.30;99.90;;;;;;5073897;28;20053;-71
2023/09/16 03:34:37;;;;;;;15.60;12.27;;;13.30;99.90;;;;;;5075350;28;20532;-74
2023/09/16 03:37:03;;;;;;;15.93;12.00;;;13.30;99.90;;;;;;5075254;28;20040;-74
2023/09/16 03:39:28;;;;;;;13.97;11.80;;;13.20;99.90;;;;;;5075189;28;20048;-74
2023/09/16 03:41:54;;;;;;;12.97;11.67;;;13.30;99.90;;;;;;5074777;28;20195;-74
2023/09/16 03:44:20;;;;;;;14.37;11.60;;;13.20;99.90;;;;;;5073972;28;20501;-74
2023/09/16 03:46:47;;;;;;;12.47;11.17;;;13.20;99.90;;;;;;5073588;28;20313;-74
2023/09/16 03:49:13;;;;;;;14.47;12.23;;;13.20;99.90;;;;;;5073206;28;20099;-74
2023/09/16 03:51:39;;;;;;;13.03;11.73;;;13.20;99.90;;;;;;5074300;28;20345;-74
2023/09/16 03:54:06;;;;;;;14.53;12.53;;;13.10;99.90;;;;;;5074627;28;20101;-74
2023/09/16 03:56:32;;;;;;;13.33;11.80;;;13.20;99.90;;;;;;5074896;28;20291;-74
2023/09/16 03:58:58;;;;;;;14.77;11.07;;;13.10;99.90;;;;;;5074598;28;20742;-74
2023/09/16 04:01:24;;;;;;;14.33;12.37;;;13.20;99.90;;;;;;5074433;28;20759;-74
2023/09/16 04:03:51;;;;;;;13.23;11.83;;;13.20;99.90;;;;;;5073641;28;20275;-74
2023/09/16 04:06:17;;;;;;;12.80;11.43;;;13.20;99.90;;;;;;5074521;28;20072;-74
2023/09/16 04:08:42;;;;;;;16.20;12.00;;;13.20;99.90;;;;;;5074616;28;20283;-74
2023/09/16 04:11:08;;;;;;;13.57;11.83;;;13.10;99.90;;;;;;5073165;28;20512;-74
2023/09/16 04:13:34;;;;;;;15.00;12.37;;;13.10;99.90;;;;;;5073360;28;20500;-74
2023/09/16 04:16:00;;;;;;;15.03;12.17;;;13.10;99.90;;;;;;5072733;28;20308;-74
2023/09/16 04:18:26;;;;;;;16.03;12.53;;;13.00;99.90;;;;;;5074423;28;20044;-74
2023/09/16 04:20:55;;;;;;;14.63;12.03;;;13.00;99.90;;;;;;5073140;28;20286;-74
2023/09/16 04:23:24;;;;;;;13.63;12.23;;;13.00;99.90;;;;;;5072887;28;20056;-74
2023/09/16 04:25:57;;;;;;;14.13;12.40;;;13.00;99.90;;;;;;5073180;28;20390;-74
2023/09/16 04:28:23;;;;;;;15.07;12.70;;;13.00;99.90;;;;;;5073625;28;20290;-74
2023/09/16 04:30:50;;;;;;;14.60;12.73;;;13.00;99.90;;;;;;5073428;28;20291;-74
2023/09/16 04:33:20;;;;;;;16.53;13.13;;;13.00;99.90;;;;;;5072873;28;20344;-74
2023/09/16 04:35:48;;;;;;;17.33;12.87;;;13.00;99.90;;;;;;5074082;28;20275;-74
2023/09/16 04:38:14;;;;;;;14.80;13.10;;;13.00;99.90;;;;;;5072860;28;20351;-74
2023/09/16 04:40:44;;;;;;;14.00;12.50;;;13.00;99.90;;;;;;5056442;28;20286;-74
2023/09/16 04:43:12;;;;;;;16.83;13.63;;;12.90;99.90;;;;;;5073666;28;20354;-74
2023/09/16 04:45:39;;;;;;;16.80;13.63;;;12.90;99.90;;;;;;5072977;28;20298;-74
2023/09/16 04:48:05;;;;;;;15.77;14.03;;;12.90;99.90;;;;;;5073226;28;20774;-74
2023/09/16 04:50:31;;;;;;;14.97;13.47;;;12.90;99.90;;;;;;5073871;28;20379;-74
2023/09/16 04:52:58;;;;;;;15.63;13.40;;;12.90;99.90;;;;;;5073870;28;20071;-73
2023/09/16 04:55:24;;;;;;;15.40;13.80;;;12.90;99.90;;;;;;5072466;28;20279;-74
2023/09/16 04:57:49;;;;;;;15.20;13.60;;;13.00;99.90;;;;;;5073669;28;20375;-74
2023/09/16 05:00:17;;;;;;;14.43;12.73;;;12.90;99.90;;;;;;5073407;28;20094;-74
2023/09/16 05:02:48;;;;;;;14.77;13.27;;;12.90;99.90;;;;;;5073516;28;20051;-74
2023/09/16 05:05:14;;;;;;;15.30;13.70;;;12.90;99.90;;;;;;5073351;28;20279;-74
2023/09/16 05:07:40;;;;;;;16.40;13.67;;;12.80;99.90;;;;;;5072513;28;20696;-74
2023/09/16 05:10:06;;;;;;;14.10;12.50;;;12.80;99.90;;;;;;5073224;28;20314;-74
2023/09/16 05:12:32;;;;;;;18.87;13.33;;;12.90;99.90;;;;;;5072296;28;20098;-73
2023/09/16 05:14:58;;;;;;;16.03;13.07;;;12.80;99.90;;;;;;5073428;28;20286;-73
2023/09/16 05:17:23;;;;;;;14.90;13.03;;;12.80;99.90;;;;;;5072038;28;20885;-74
2023/09/16 05:19:49;;;;;;;19.33;15.07;;;12.90;99.90;;;;;;5073471;28;20131;-74
2023/09/16 05:22:15;;;;;;;15.97;14.27;;;12.90;99.90;;;;;;5072561;28;20049;-73
2023/09/16 05:24:40;;;;;;;16.17;14.47;;;12.90;99.90;;;;;;5089136;28;20052;-73
2023/09/16 05:27:06;;;;;;;17.63;14.33;;;12.90;99.90;;;;;;5072945;28;20059;-74
2023/09/16 05:29:32;;;;;;;16.73;13.97;;;12.80;99.90;;;;;;5073407;28;20047;-73
2023/09/16 05:31:58;;;;;;;15.90;12.97;;;12.80;99.90;;;;;;5073044;28;20476;-74
2023/09/16 05:34:24;;;;;;;15.50;13.60;;;12.90;99.90;;;;;;5071626;28;20044;-74
2023/09/16 05:36:50;;;;;;;16.10;13.80;;;12.90;99.90;;;;;;5073025;28;20287;-73
2023/09/16 05:39:15;;;;;;;15.17;13.57;;;13.00;99.90;;;;;;5072039;28;20094;-74
2023/09/16 05:41:43;;;;;;;15.50;13.83;;;13.00;99.90;;;;;;5071821;28;20047;-74
2023/09/16 05:44:09;;;;;;;15.20;13.30;;;13.00;99.90;;;;;;5071509;28;20040;-74
2023/09/16 05:46:34;;;;;;;15.23;13.63;;;13.00;99.90;;;;;;5055340;28;20287;-74
2023/09/16 05:49:07;;;;;;;16.10;13.83;;;13.00;99.90;;;;;;5072841;28;20056;-74
2023/09/16 05:51:33;;;;;;;16.30;13.93;;;13.10;99.90;;;;;;5072806;28;20049;-74
2023/09/16 05:53:59;;;;;;;19.00;17.00;;;13.10;99.90;;;;;;5071550;28;20365;-74
2023/09/16 05:56:25;;;;;;;18.47;16.60;;;13.20;99.90;;;;;;5071241;28;20044;-74
2023/09/16 05:58:51;;;;;;;19.17;17.27;;;13.20;99.90;;;;;;5071963;28;20294;-73
2023/09/16 06:01:17;;;;;;;17.60;15.63;;;13.10;99.90;;;;;;5072391;28;20041;-74
2023/09/16 06:03:42;;;;;;;17.53;15.63;;;13.20;99.90;;;;;;5072378;28;20080;-74
2023/09/16 06:06:08;;;;;;;17.90;15.47;;;13.20;99.90;;;;;;5071599;28;20099;-73
2023/09/16 06:08:34;;;;;;;15.20;13.60;;;13.30;99.90;;;;;;5072388;28;20392;-74
2023/09/16 06:10:59;;;;;;;19.07;17.07;;;13.30;99.90;;;;;;5054951;28;20053;-74
2023/09/16 06:13:26;;;;;;;18.73;16.83;;;13.40;99.90;;;;;;5071028;28;20040;-74
2023/09/16 06:15:52;;;;;;;16.57;14.77;;;13.40;99.90;;;;;;5072748;28;20049;-74
2023/09/16 06:18:18;;;;;;;18.63;16.60;;;13.50;99.90;;;;;;5072652;28;20603;-74
2023/09/16 06:20:44;;;;;;;18.90;16.90;;;13.70;99.90;;;;;;5054988;28;20298;-74
2023/09/16 06:23:09;;;;;;;19.33;17.43;;;13.70;99.90;;;;;;5072502;28;20041;-74
2023/09/16 06:25:35;;;;;;;18.00;16.07;;;13.70;99.90;;;;;;5072260;28;20302;-74
2023/09/16 06:28:03;;;;;;;19.37;17.40;;;13.80;99.90;;;;;;5054802;28;20054;-74
2023/09/16 06:30:28;;;;;;;18.20;16.03;;;13.80;99.90;;;;;;5072220;28;20051;-74
2023/09/16 06:32:55;;;;;;;20.87;17.20;;;13.80;99.90;;;;;;5072434;28;20283;-74
2023/09/16 06:35:21;;;;;;;18.00;15.67;;;13.80;99.90;;;;;;5072282;28;20063;-74
2023/09/16 06:37:46;;;;;;;19.47;17.27;;;13.80;99.90;;;;;;5072375;28;20290;-74
2023/09/16 06:40:12;;;;;;;19.07;17.17;;;13.90;99.90;;;;;;5072424;28;20440;-74
2023/09/16 06:42:38;;;;;;;18.20;16.40;;;14.10;99.90;;;;;;5070861;28;20131;-74
2023/09/16 06:45:04;;;;;;;17.33;15.53;;;14.90;99.90;;;;;;5072334;28;20480;-74
2023/09/16 06:47:30;;;;;;;18.80;15.87;;;16.10;99.90;;;;;;5070855;28;20432;-74
2023/09/16 06:49:56;;;;;;;14.30;12.87;;;17.30;99.90;;;;;;5072274;28;20136;-73
2023/09/16 06:52:22;;;;;;;13.30;11.17;;;18.50;99.90;;;;;;5075497;28;20569;-74
2023/09/16 06:54:49;;;;;;;13.67;12.27;;;19.50;99.90;;;;;;5076143;28;20052;-73
2023/09/16 06:57:15;;;;;;;12.40;11.10;;;20.40;99.90;;;;;;5074988;28;20049;-74
2023/09/16 06:59:41;;;;;;;13.03;10.43;;;21.20;99.90;;;;;;5074780;28;20441;-74
2023/09/16 07:02:06;;;;;;;13.37;10.73;;;22.00;99.90;;;;;;5074311;28;20450;-74
2023/09/16 07:04:32;;;;;;;11.43;10.07;;;22.60;99.90;;;;;;5074529;28;20054;-73
2023/09/16 07:06:58;;;;;;;11.50;10.23;;;23.10;99.90;;;;;;5074799;28;20041;-74
2023/09/16 07:09:23;;;;;;;10.13;9.13;;;23.40;99.90;;;;;;5075516;28;20055;-73
2023/09/16 07:11:49;;;;;;;11.13;9.20;;;23.90;99.90;;;;;;5075048;28;20131;-71
2023/09/16 07:14:15;;;;;;;9.90;8.90;;;24.10;99.90;;;;;;5074847;28;20056;-73
2023/09/16 07:16:40;;;;;;;12.50;9.33;;;24.70;99.90;;;;;;5074377;28;20067;-74
2023/09/16 07:19:09;;;;;;;10.03;8.87;;;25.10;99.90;;;;;;5075588;28;20045;-75
2023/09/16 07:21:35;;;;;;;10.77;9.13;;;25.30;99.90;;;;;;5074357;28;20040;-75
2023/09/16 07:24:01;;;;;;;9.93;8.87;;;25.40;99.90;;;;;;5057879;28;20507;-74
2023/09/16 07:26:30;;;;;;;10.93;8.90;;;25.70;99.90;;;;;;5075290;28;20527;-75
2023/09/16 07:28:57;;;;;;;10.63;8.70;;;26.00;92.00;;;;;;5075489;28;20075;-75
2023/09/16 07:31:23;;;;;;;10.10;8.63;;;26.20;98.70;;;;;;5075079;28;20040;-75
2023/09/16 07:33:49;;;;;;;9.77;8.30;;;26.60;99.30;;;;;;5075583;28;20461;-75
2023/09/16 07:36:15;;;;;;;8.90;8.00;;;26.20;97.60;;;;;;5075255;28;20400;-74
2023/09/16 07:38:40;;;;;;;9.83;8.83;;;25.70;98.40;;;;;;5090632;28;20056;-74
2023/09/16 07:41:06;;;;;;;10.10;8.53;;;24.90;98.90;;;;;;5075175;28;20136;-73
2023/09/16 07:43:32;;;;;;;9.60;8.60;;;24.10;99.90;;;;;;5074835;28;20056;-74
2023/09/16 07:45:59;;;;;;;10.03;8.60;;;23.40;99.90;;;;;;5075322;28;20040;-74
2023/09/16 07:48:25;;;;;;;9.30;8.40;;;22.90;99.90;;;;;;5073665;28;20071;-74
2023/09/16 07:50:51;;;;;;;10.97;8.90;;;22.40;99.90;;;;;;5075047;28;20048;-73
2023/09/16 07:53:16;;;;;;;12.13;9.67;;;22.00;99.90;;;;;;5073740;28;20047;-74
2023/09/16 07:55:42;;;;;;;10.10;8.87;;;21.70;99.90;;;;;;5073392;28;20063;-73
2023/09/16 07:58:08;;;;;;;10.33;8.97;;;21.50;99.90;;;;;;5040654;28;20045;-73
2023/09/16 08:00:34;;;;;;;10.13;9.00;;;21.30;99.90;;;;;;5040492;28;20045;-72
2023/09/16 08:02:59;;;;;;;10.70;9.60;;;21.10;99.90;;;;;;5072974;28;20049;-72
2023/09/16 08:05:26;;;;;;;11.73;9.60;;;21.00;99.90;;;;;;5074523;28;20449;-74
2023/09/16 08:07:52;;;;;;;10.70;9.60;;;20.90;99.90;;;;;;5074814;28;20048;-73
2023/09/16 08:10:18;;;;;;;10.90;9.50;;;20.90;99.90;;;;;;5073381;28;20047;-74
2023/09/16 08:12:44;;;;;;;13.20;10.77;;;20.80;99.90;;;;;;5073151;28;20047;-73
2023/09/16 08:15:10;;;;;;;10.30;9.13;;;20.80;99.90;;;;;;5074290;28;20051;-72
2023/09/16 08:17:39;;;;;;;10.90;9.57;;;20.70;99.90;;;;;;5074336;28;20570;-74
2023/09/16 08:20:08;;;;;;;10.90;9.57;;;20.70;99.90;;;;;;5073303;28;20044;-72
2023/09/16 08:22:34;;;;;;;11.30;9.00;;;20.60;99.90;;;;;;5073761;28;20542;-73
2023/09/16 08:25:01;;;;;;;10.00;8.80;;;20.50;99.90;;;;;;5073244;28;20045;-74
2023/09/16 08:27:27;;;;;;;11.07;9.43;;;20.50;99.90;;;;;;5074390;28;20105;-75
2023/09/16 08:29:54;;;;;;;13.73;10.47;;;20.50;99.90;;;;;;5056402;28;20052;-74
2023/09/16 08:32:22;;;;;;;10.87;8.90;;;20.40;99.90;;;;;;5073087;28;20040;-74
2023/09/16 08:34:50;;;;;;;10.47;8.80;;;20.30;99.90;;;;;;5073704;28;20559;-73
2023/09/16 08:37:16;;;;;;;10.87;9.63;;;20.30;99.90;;;;;;5073092;28;20122;-73
2023/09/16 08:39:42;;;;;;;11.43;9.30;;;20.30;99.90;;;;;;5072844;28;20049;-76
2023/09/16 08:42:14;;;;;;;10.73;9.63;;;20.30;99.90;;;;;;5072786;28;20036;-74
2023/09/16 08:44:44;;;;;;;11.83;9.77;;;20.20;99.90;;;;;;5072782;28;20051;-75
2023/09/16 08:47:14;;;;;;;11.43;9.90;;;20.20;99.90;;;;;;5073090;28;20435;-74
2023/09/16 08:49:51;;;;;;;12.43;9.83;;;20.20;99.90;;;;;;5073543;28;20060;-74
2023/09/16 08:52:19;;;;;;;11.83;8.30;;;20.30;99.90;;;;;;5074176;28;20052;-74
2023/09/16 08:54:47;;;;;;;11.10;9.30;;;20.30;99.90;;;;;;5073629;28;20045;-74
2023/09/16 08:57:14;;;;;;;10.30;8.00;;;20.30;99.90;;;;;;5072824;28;20469;-74
2023/09/16 08:59:40;;;;;;;11.97;8.70;;;20.40;99.90;;;;;;5072371;28;20049;-74
2023/09/16 09:02:11;;;;;;;10.87;8.10;;;20.40;99.90;;;;;;5073809;28;20113;-73
2023/09/16 09:04:39;;;;;;;9.80;7.50;;;20.40;99.90;;;;;;5073366;28;20041;-74
2023/09/16 09:07:06;;;;;;;11.47;8.27;;;20.40;99.90;;;;;;5072547;28;20254;-68
2023/09/16 09:09:32;;;;;;;11.03;6.97;;;20.40;99.90;;;;;;5073471;28;20374;-69
2023/09/16 09:11:58;;;;;;;10.30;6.37;;;20.40;99.90;;;;;;5073153;28;20047;-70
2023/09/16 09:14:25;;;;;;;8.07;6.17;;;20.50;99.90;;;;;;5073397;28;20044;-69
2023/09/16 09:16:53;;;;;;;10.33;5.67;;;20.60;99.90;;;;;;5073059;28;20052;-71
2023/09/16 09:19:20;;;;;;;9.80;5.60;;;20.60;99.90;;;;;;5073336;28;20044;-74
2023/09/16 09:21:47;;;;;;;7.70;5.10;;;20.70;99.90;;;;;;5073645;28;20493;-68
2023/09/16 09:24:13;;;;;;;8.60;5.47;;;20.70;99.90;;;;;;5072755;28;20080;-69
2023/09/16 09:26:39;;;;;;;8.97;5.50;;;20.80;99.90;;;;;;5071256;28;20107;-71
2023/09/16 09:29:09;;;;;;;7.87;4.63;;;20.80;99.90;;;;;;5071455;28;20048;-70
2023/09/16 09:31:36;;;;;;;8.40;5.00;;;20.80;99.90;;;;;;5070319;28;20051;-70
2023/09/16 09:34:02;;;;;;;9.17;5.23;;;20.90;99.90;;;;;;5071548;28;20054;-68
2023/09/16 09:36:32;;;;;;;6.57;4.60;;;20.90;99.90;;;;;;5072966;28;20400;-68
2023/09/16 09:38:58;;;;;;;10.60;5.87;;;20.90;99.90;;;;;;5072707;28;20442;-68
2023/09/16 09:41:24;;;;;;;7.67;5.20;;;20.90;99.90;;;;;;5071625;28;20037;-68
2023/09/16 09:43:53;;;;;;;8.07;5.33;;;20.90;99.90;;;;;;5071386;28;20045;-70
2023/09/16 09:46:21;;;;;;;9.33;5.13;;;20.90;99.90;;;;;;5073057;28;20040;-76
2023/09/16 09:48:47;;;;;;;8.70;5.67;;;20.90;99.90;;;;;;5072244;28;20053;-71
2023/09/16 09:51:17;;;;;;;9.50;5.63;;;21.00;99.90;;;;;;5072920;28;20056;-69
2023/09/16 09:53:45;;;;;;;5.90;4.63;;;21.00;99.90;;;;;;5072889;28;20044;-69
2023/09/16 09:56:11;;;;;;;7.93;4.60;;;21.00;99.90;;;;;;5072832;28;20102;-70
2023/09/16 09:58:37;;;;;;;7.87;4.53;;;21.00;99.90;;;;;;5072925;28;20182;-69
2023/09/16 10:01:03;;;;;;;6.30;4.87;;;21.00;99.90;;;;;;5071391;28;20044;-67
2023/09/16 10:03:29;;;;;;;8.97;4.33;;;21.00;99.90;;;;;;5072742;28;20048;-66
2023/09/16 10:05:58;;;;;;;8.63;4.30;;;21.10;99.90;;;;;;5071479;28;20045;-70
2023/09/16 10:08:24;;;;;;;8.83;4.33;;;21.10;99.90;;;;;;5072371;28;20561;-70
2023/09/16 10:10:52;;;;;;;9.23;4.27;;;21.10;99.90;;;;;;5072456;28;20408;-74
2023/09/16 10:13:19;;;;;;;7.50;4.33;;;21.10;99.90;;;;;;5072679;28;20549;-68
2023/09/16 10:15:45;;;;;;;6.77;4.77;;;21.10;99.90;;;;;;5072404;28;20393;-69
2023/09/16 10:18:12;;;;;;;7.17;4.90;;;21.10;99.90;;;;;;5071431;28;20044;-67
2023/09/16 10:20:39;;;;;;;7.10;4.57;;;21.10;99.90;;;;;;5072622;28;20048;-69
2023/09/16 10:23:06;;;;;;;9.03;3.97;;;21.10;99.90;;;;;;5072226;28;20059;-68
2023/09/16 10:25:33;;;;;;;7.23;4.43;;;21.10;99.90;;;;;;5072892;28;20048;-67
2023/09/16 10:28:02;;;;;;;6.87;4.60;;;21.10;99.90;;;;;;5073216;28;20385;-69
2023/09/16 10:30:30;;;;;;;6.53;4.23;;;21.20;99.90;;;;;;5076247;28;20091;-70
2023/09/16 10:33:00;;;;;;;7.67;4.70;;;21.10;99.90;;;;;;5074834;28;20128;-71
2023/09/16 10:35:28;;;;;;;7.67;3.87;;;21.20;99.90;;;;;;5074989;28;20472;-71
2023/09/16 10:37:56;;;;;;;7.30;5.10;;;21.20;99.90;;;;;;5076207;28;20059;-71
2023/09/16 10:40:23;;;;;;;8.93;5.10;;;21.10;99.90;;;;;;5074863;28;20496;-71
2023/09/16 10:42:51;;;;;;;8.90;4.90;;;21.20;99.90;;;;;;5075953;28;20040;-71
2023/09/16 10:45:18;;;;;;;7.63;4.43;;;21.20;99.90;;;;;;5075009;28;20052;-71
2023/09/16 10:47:49;;;;;;;7.23;4.37;;;21.30;99.90;;;;;;5076313;28;20040;-70
2023/09/16 10:50:16;;;;;;;9.37;5.00;;;21.30;99.90;;;;;;5076209;28;20060;-70
2023/09/16 10:52:49;;;;;;;9.03;4.30;;;21.20;99.90;;;;;;5076122;28;20045;-70
2023/09/16 10:55:28;;;;;;;8.97;5.63;;;21.20;99.90;;;;;;5074886;28;20477;-70
2023/09/16 10:58:15;;;;;;;8.27;4.33;;;21.10;99.90;;;;;;5075779;28;20074;-70
2023/09/16 11:00:48;;;;;;;6.90;4.20;;;21.20;99.90;;;;;;5074985;28;20050;-70
2023/09/16 11:03:14;;;;;;;9.73;3.50;;;21.30;99.90;;;;;;5075901;28;20048;-70
2023/09/16 11:05:40;;;;;;;7.97;3.63;;;21.40;99.90;;;;;;5075818;28;20499;-70
2023/09/16 11:08:07;;;;;;;6.70;3.00;;;21.40;99.90;;;;;;5074538;28;20090;-70
2023/09/16 11:10:33;;;;;;;5.77;3.37;;;21.40;99.90;;;;;;5074837;28;20110;-70
2023/09/16 11:12:59;;;;;;;8.60;4.30;;;21.40;99.90;;;;;;5075284;28;20048;-70
2023/09/16 11:15:33;;;;;;;7.20;4.13;;;21.40;99.90;;;;;;5074750;28;20160;-69
2023/09/16 11:18:03;;;;;;;8.77;4.40;;;21.50;99.90;;;;;;5075327;28;20142;-69
2023/09/16 11:20:32;;;;;;;6.93;3.67;;;21.60;99.90;;;;;;5075570;28;20489;-69
2023/09/16 11:23:02;;;;;;;10.63;4.00;;;21.60;99.90;;;;;;5073983;28;20489;-69
2023/09/16 11:25:36;;;;;;;7.93;3.80;;;21.70;99.90;;;;;;5075519;28;20056;-69
2023/09/16 11:28:08;;;;;;;6.88;3.50;;;21.70;99.90;;;;;;5074001;28;20396;-70
2023/09/16 11:30:36;;;;;;;6.77;3.37;;;21.70;99.90;;;;;;5075473;28;20071;-69
2023/09/16 11:33:02;;;;;;;5.33;2.80;;;21.60;99.90;;;;;;5073943;28;20037;-70
2023/09/16 11:35:29;;;;;;;5.73;3.03;;;21.50;99.90;;;;;;5075387;28;20510;-69
2023/09/16 11:37:56;;;;;;;5.30;2.90;;;21.50;99.90;;;;;;5072435;28;20093;-69
2023/09/16 11:40:48;;;;;;;5.50;2.80;;;21.50;99.90;;;;;;5075295;28;20049;-69
2023/09/16 11:43:13;;;;;;;6.77;2.83;;;21.50;99.90;;;;;;5073168;28;20552;-69
2023/09/16 11:45:39;;;;;;;6.90;2.90;;;21.50;99.90;;;;;;5075174;28;20157;-69
2023/09/16 11:48:05;;;;;;;4.20;2.43;;;21.40;99.90;;;;;;5074837;28;20353;-69
2023/09/16 11:50:31;;;;;;;7.83;3.00;;;21.40;99.90;;;;;;5075214;28;20495;-69
2023/09/16 11:52:58;;;;;;;5.10;2.53;;;21.40;99.90;;;;;;5073863;28;20048;-70
2023/09/16 11:55:27;;;;;;;5.60;2.60;;;21.40;99.90;;;;;;5057480;28;20059;-69
2023/09/16 11:57:52;;;;;;;5.97;2.40;;;21.40;99.90;;;;;;5074911;28;20400;-69
2023/09/16 12:00:18;;;;;;;6.00;2.50;;;21.50;99.90;;;;;;5074751;28;20048;-69
2023/09/16 12:02:45;;;;;;;4.37;2.53;;;21.50;99.90;;;;;;5074790;28;20531;-69
2023/09/16 12:05:12;;;;;;;6.53;2.97;;;21.60;99.90;;;;;;5074509;28;20051;-69
2023/09/16 12:07:38;;;;;;;5.37;2.90;;;21.70;99.90;;;;;;5074814;28;20048;-67
2023/09/16 12:10:05;;;;;;;7.37;3.10;;;21.70;99.90;;;;;;5074425;28;20052;-68
2023/09/16 12:12:32;;;;;;;6.43;3.50;;;21.80;99.90;;;;;;5074691;28;20419;-69
2023/09/16 12:14:59;;;;;;;4.80;2.93;;;21.80;99.90;;;;;;5074285;28;20051;-69
2023/09/16 12:17:25;;;;;;;5.23;2.77;;;21.90;99.90;;;;;;5074592;28;20105;-69
2023/09/16 12:19:53;;;;;;;5.70;3.03;;;22.00;99.90;;;;;;5074525;28;20070;-69
2023/09/16 12:22:19;;;;;;;6.77;3.33;;;22.00;99.90;;;;;;5074146;28;20056;-69
2023/09/16 12:24:45;;;;;;;4.97;3.00;;;22.10;99.90;;;;;;5074529;28;20052;-69
2023/09/16 12:27:12;;;;;;;6.43;2.70;;;22.00;99.90;;;;;;5073262;28;20097;-69
2023/09/16 12:29:39;;;;;;;5.50;3.00;;;22.00;99.90;;;;;;5074362;28;20059;-68
2023/09/16 12:32:12;;;;;;;7.10;3.40;;;22.00;99.90;;;;;;5074018;28;20067;-69
2023/09/16 12:34:38;;;;;;;6.67;3.17;;;22.00;99.90;;;;;;5074242;28;20400;-69